sensor_id;sensor_type;location;lat;lon;timestamp;P1;durP1;ratioP1;P2;durP2;ratioP2
68375;SDS011;55318;52.068;5.188;2023-07-20T00:01:12;2.21;;;1.7;;
68375;SDS011;55318;52.068;5.188;2023-07-20T00:04:26;3.8;;;2.1;;
68375;SDS011;55318;52.068;5.188;2023-07-20T00:06:02;2.9;;;1.8;;
68375;SDS011;55318;52.068;5.188;2023-07-20T00:07:38;4.91;;;2.21;;
68375;SDS011;55318;52.068;5.188;2023-07-20T00:09:14;3.5;;;1.8;;
68375;SDS011;55318;52.068;5.188;2023-07-20T00:12:26;4.8;;;1.9;;
68375;SDS011;55318;52.068;5.188;2023-07-20T00:14:03;2.6;;;2.0;;
68375;SDS011;55318;52.068;5.188;2023-07-20T00:15:39;3.0;;;2.31;;
68375;SDS011;55318;52.068;5.188;2023-07-20T00:18:51;2.6;;;1.9;;
68375;SDS011;55318;52.068;5.188;2023-07-20T00:20:27;2.0;;;1.7;;
68375;SDS011;55318;52.068;5.188;2023-07-20T00:22:03;3.1;;;1.9;;
68375;SDS011;55318;52.068;5.188;2023-07-20T00:25:15;2.0;;;1.6;;
68375;SDS011;55318;52.068;5.188;2023-07-20T00:26:51;4.1;;;2.31;;
68375;SDS011;55318;52.068;5.188;2023-07-20T00:28:28;5.5;;;1.5;;
68375;SDS011;55318;52.068;5.188;2023-07-20T00:31:41;1.3;;;1.2;;
68375;SDS011;55318;52.068;5.188;2023-07-20T00:33:17;1.5;;;1.4;;
68375;SDS011;55318;52.068;5.188;2023-07-20T00:34:54;2.7;;;1.3;;
68375;SDS011;55318;52.068;5.188;2023-07-20T00:36:30;2.0;;;1.5;;
68375;SDS011;55318;52.068;5.188;2023-07-20T00:39:42;6.4;;;1.8;;
68375;SDS011;55318;52.068;5.188;2023-07-20T00:41:18;1.4;;;1.3;;
68375;SDS011;55318;52.068;5.188;2023-07-20T00:42:55;2.1;;;1.2;;
68375;SDS011;55318;52.068;5.188;2023-07-20T00:46:07;1.5;;;1.3;;
68375;SDS011;55318;52.068;5.188;2023-07-20T00:47:45;1.8;;;1.4;;
68375;SDS011;55318;52.068;5.188;2023-07-20T00:49:22;1.4;;;1.11;;
68375;SDS011;55318;52.068;5.188;2023-07-20T00:52:35;1.3;;;1.2;;
68375;SDS011;55318;52.068;5.188;2023-07-20T00:54:14;1.5;;;0.9;;
68375;SDS011;55318;52.068;5.188;2023-07-20T00:55:51;2.1;;;1.4;;
68375;SDS011;55318;52.068;5.188;2023-07-20T00:57:27;1.2;;;0.9;;
68375;SDS011;55318;52.068;5.188;2023-07-20T01:00:40;0.9;;;0.9;;
68375;SDS011;55318;52.068;5.188;2023-07-20T01:02:16;0.7;;;0.7;;
68375;SDS011;55318;52.068;5.188;2023-07-20T01:03:52;1.0;;;0.8;;
68375;SDS011;55318;52.068;5.188;2023-07-20T01:07:17;0.7;;;0.7;;
68375;SDS011;55318;52.068;5.188;2023-07-20T01:09:02;1.2;;;0.9;;
68375;SDS011;55318;52.068;5.188;2023-07-20T01:10:50;0.7;;;0.7;;
68375;SDS011;55318;52.068;5.188;2023-07-20T01:12:35;1.7;;;0.7;;
68375;SDS011;55318;52.068;5.188;2023-07-20T01:14:17;2.9;;;0.8;;
68375;SDS011;55318;52.068;5.188;2023-07-20T01:17:35;2.9;;;0.8;;
68375;SDS011;55318;52.068;5.188;2023-07-20T01:19:12;1.0;;;0.7;;
68375;SDS011;55318;52.068;5.188;2023-07-20T01:20:48;0.9;;;0.9;;
68375;SDS011;55318;52.068;5.188;2023-07-20T01:22:31;1.2;;;0.9;;
68375;SDS011;55318;52.068;5.188;2023-07-20T01:26:54;6.3;;;0.9;;
68375;SDS011;55318;52.068;5.188;2023-07-20T01:30:13;1.2;;;0.8;;
68375;SDS011;55318;52.068;5.188;2023-07-20T01:32:00;1.3;;;0.9;;
68375;SDS011;55318;52.068;5.188;2023-07-20T01:33:39;0.8;;;0.8;;
68375;SDS011;55318;52.068;5.188;2023-07-20T01:35:17;1.6;;;1.0;;
68375;SDS011;55318;52.068;5.188;2023-07-20T01:38:34;1.7;;;0.9;;
68375;SDS011;55318;52.068;5.188;2023-07-20T01:40:12;1.2;;;1.0;;
68375;SDS011;55318;52.068;5.188;2023-07-20T01:41:50;1.7;;;1.0;;
68375;SDS011;55318;52.068;5.188;2023-07-20T01:43:26;0.8;;;0.8;;
68375;SDS011;55318;52.068;5.188;2023-07-20T01:46:39;0.8;;;0.8;;
68375;SDS011;55318;52.068;5.188;2023-07-20T01:48:15;1.2;;;0.8;;
68375;SDS011;55318;52.068;5.188;2023-07-20T01:49:51;0.8;;;0.8;;
68375;SDS011;55318;52.068;5.188;2023-07-20T01:53:03;1.3;;;0.9;;
68375;SDS011;55318;52.068;5.188;2023-07-20T01:54:39;1.0;;;0.9;;
68375;SDS011;55318;52.068;5.188;2023-07-20T01:56:15;1.0;;;0.8;;
68375;SDS011;55318;52.068;5.188;2023-07-20T01:59:29;1.11;;;1.0;;
68375;SDS011;55318;52.068;5.188;2023-07-20T02:01:05;1.8;;;0.9;;
68375;SDS011;55318;52.068;5.188;2023-07-20T02:02:41;1.0;;;0.9;;
68375;SDS011;55318;52.068;5.188;2023-07-20T02:04:17;1.9;;;0.9;;
68375;SDS011;55318;52.068;5.188;2023-07-20T02:07:29;1.11;;;1.0;;
68375;SDS011;55318;52.068;5.188;2023-07-20T02:09:05;1.7;;;1.11;;
68375;SDS011;55318;52.068;5.188;2023-07-20T02:10:42;1.7;;;1.0;;
68375;SDS011;55318;52.068;5.188;2023-07-20T02:13:57;1.11;;;0.9;;
68375;SDS011;55318;52.068;5.188;2023-07-20T02:15:33;1.4;;;1.0;;
68375;SDS011;55318;52.068;5.188;2023-07-20T02:17:09;0.8;;;0.7;;
68375;SDS011;55318;52.068;5.188;2023-07-20T02:20:21;1.5;;;1.0;;
68375;SDS011;55318;52.068;5.188;2023-07-20T02:21:57;1.2;;;0.9;;
68375;SDS011;55318;52.068;5.188;2023-07-20T02:23:33;1.8;;;0.9;;
68375;SDS011;55318;52.068;5.188;2023-07-20T02:25:10;0.9;;;0.9;;
68375;SDS011;55318;52.068;5.188;2023-07-20T02:28:22;1.4;;;1.0;;
68375;SDS011;55318;52.068;5.188;2023-07-20T02:29:58;1.4;;;0.8;;
68375;SDS011;55318;52.068;5.188;2023-07-20T02:31:34;1.11;;;1.0;;
68375;SDS011;55318;52.068;5.188;2023-07-20T02:34:46;1.2;;;1.0;;
68375;SDS011;55318;52.068;5.188;2023-07-20T02:36:22;1.9;;;1.3;;
68375;SDS011;55318;52.068;5.188;2023-07-20T02:37:58;1.8;;;1.3;;
68375;SDS011;55318;52.068;5.188;2023-07-20T02:41:11;1.4;;;1.3;;
68375;SDS011;55318;52.068;5.188;2023-07-20T02:42:49;2.21;;;1.0;;
68375;SDS011;55318;52.068;5.188;2023-07-20T02:44:25;1.3;;;1.2;;
68375;SDS011;55318;52.068;5.188;2023-07-20T02:47:37;1.7;;;1.6;;
68375;SDS011;55318;52.068;5.188;2023-07-20T02:49:13;2.0;;;1.11;;
68375;SDS011;55318;52.068;5.188;2023-07-20T02:50:49;2.4;;;1.11;;
68375;SDS011;55318;52.068;5.188;2023-07-20T02:52:25;1.5;;;1.2;;
68375;SDS011;55318;52.068;5.188;2023-07-20T02:55:38;2.1;;;1.5;;
68375;SDS011;55318;52.068;5.188;2023-07-20T02:57:14;2.31;;;1.3;;
68375;SDS011;55318;52.068;5.188;2023-07-20T02:58:50;2.1;;;1.11;;
68375;SDS011;55318;52.068;5.188;2023-07-20T03:02:03;2.0;;;1.4;;
68375;SDS011;55318;52.068;5.188;2023-07-20T03:03:39;1.6;;;1.5;;
68375;SDS011;55318;52.068;5.188;2023-07-20T03:05:15;2.4;;;1.4;;
68375;SDS011;55318;52.068;5.188;2023-07-20T03:08:27;2.0;;;1.3;;
68375;SDS011;55318;52.068;5.188;2023-07-20T03:10:04;1.9;;;1.11;;
68375;SDS011;55318;52.068;5.188;2023-07-20T03:11:41;2.31;;;1.2;;
68375;SDS011;55318;52.068;5.188;2023-07-20T03:13:17;1.9;;;1.4;;
68375;SDS011;55318;52.068;5.188;2023-07-20T03:16:29;2.0;;;1.3;;
68375;SDS011;55318;52.068;5.188;2023-07-20T03:18:05;1.8;;;1.3;;
68375;SDS011;55318;52.068;5.188;2023-07-20T03:19:41;1.8;;;1.2;;
68375;SDS011;55318;52.068;5.188;2023-07-20T03:22:53;2.1;;;1.5;;
68375;SDS011;55318;52.068;5.188;2023-07-20T03:24:30;1.4;;;1.3;;
68375;SDS011;55318;52.068;5.188;2023-07-20T03:26:06;2.0;;;1.2;;
68375;SDS011;55318;52.068;5.188;2023-07-20T03:29:18;2.0;;;1.6;;
68375;SDS011;55318;52.068;5.188;2023-07-20T03:30:54;1.5;;;1.11;;
68375;SDS011;55318;52.068;5.188;2023-07-20T03:32:31;2.21;;;1.5;;
68375;SDS011;55318;52.068;5.188;2023-07-20T03:35:43;2.9;;;1.7;;
68375;SDS011;55318;52.068;5.188;2023-07-20T03:37:19;1.4;;;1.3;;
68375;SDS011;55318;52.068;5.188;2023-07-20T03:38:55;1.6;;;1.5;;
68375;SDS011;55318;52.068;5.188;2023-07-20T03:40:32;1.4;;;1.3;;
68375;SDS011;55318;52.068;5.188;2023-07-20T03:43:44;2.5;;;1.6;;
68375;SDS011;55318;52.068;5.188;2023-07-20T03:45:20;1.8;;;1.4;;
68375;SDS011;55318;52.068;5.188;2023-07-20T03:46:56;2.7;;;1.6;;
68375;SDS011;55318;52.068;5.188;2023-07-20T03:50:09;1.6;;;1.2;;
68375;SDS011;55318;52.068;5.188;2023-07-20T03:51:45;1.0;;;0.9;;
68375;SDS011;55318;52.068;5.188;2023-07-20T03:53:21;1.2;;;1.0;;
68375;SDS011;55318;52.068;5.188;2023-07-20T03:56:34;1.6;;;1.11;;
68375;SDS011;55318;52.068;5.188;2023-07-20T03:58:10;1.7;;;1.3;;
68375;SDS011;55318;52.068;5.188;2023-07-20T03:59:46;1.11;;;1.0;;
68375;SDS011;55318;52.068;5.188;2023-07-20T04:01:24;2.6;;;1.11;;
68375;SDS011;55318;52.068;5.188;2023-07-20T04:04:36;1.11;;;1.0;;
68375;SDS011;55318;52.068;5.188;2023-07-20T04:06:12;1.4;;;1.0;;
68375;SDS011;55318;52.068;5.188;2023-07-20T04:07:48;1.3;;;1.2;;
68375;SDS011;55318;52.068;5.188;2023-07-20T04:11:01;1.7;;;1.3;;
68375;SDS011;55318;52.068;5.188;2023-07-20T04:12:37;1.6;;;1.11;;
68375;SDS011;55318;52.068;5.188;2023-07-20T04:14:13;1.3;;;1.11;;
68375;SDS011;55318;52.068;5.188;2023-07-20T04:17:25;1.6;;;1.3;;
68375;SDS011;55318;52.068;5.188;2023-07-20T04:19:01;1.4;;;1.2;;
68375;SDS011;55318;52.068;5.188;2023-07-20T04:20:37;2.21;;;1.9;;
68375;SDS011;55318;52.068;5.188;2023-07-20T04:23:49;1.6;;;1.3;;
68375;SDS011;55318;52.068;5.188;2023-07-20T04:25:26;1.6;;;1.3;;
68375;SDS011;55318;52.068;5.188;2023-07-20T04:27:02;1.9;;;1.11;;
68375;SDS011;55318;52.068;5.188;2023-07-20T04:28:38;2.5;;;1.5;;
68375;SDS011;55318;52.068;5.188;2023-07-20T04:31:53;2.6;;;1.7;;
68375;SDS011;55318;52.068;5.188;2023-07-20T04:33:29;1.6;;;1.4;;
68375;SDS011;55318;52.068;5.188;2023-07-20T04:35:05;2.8;;;1.7;;
68375;SDS011;55318;52.068;5.188;2023-07-20T04:38:18;4.5;;;1.9;;
68375;SDS011;55318;52.068;5.188;2023-07-20T04:39:56;2.0;;;1.5;;
68375;SDS011;55318;52.068;5.188;2023-07-20T04:41:32;1.5;;;1.2;;
68375;SDS011;55318;52.068;5.188;2023-07-20T04:44:44;2.1;;;1.5;;
68375;SDS011;55318;52.068;5.188;2023-07-20T04:46:20;2.6;;;1.4;;
68375;SDS011;55318;52.068;5.188;2023-07-20T04:47:56;2.5;;;1.8;;
68375;SDS011;55318;52.068;5.188;2023-07-20T04:49:32;2.5;;;1.4;;
68375;SDS011;55318;52.068;5.188;2023-07-20T04:52:44;2.31;;;1.5;;
68375;SDS011;55318;52.068;5.188;2023-07-20T04:54:21;2.5;;;1.7;;
68375;SDS011;55318;52.068;5.188;2023-07-20T04:55:57;3.7;;;1.8;;
68375;SDS011;55318;52.068;5.188;2023-07-20T04:59:09;2.31;;;1.5;;
68375;SDS011;55318;52.068;5.188;2023-07-20T05:00:45;2.7;;;1.7;;
68375;SDS011;55318;52.068;5.188;2023-07-20T05:02:21;3.1;;;1.9;;
68375;SDS011;55318;52.068;5.188;2023-07-20T05:05:34;2.21;;;1.9;;
68375;SDS011;55318;52.068;5.188;2023-07-20T05:07:10;2.21;;;1.7;;
68375;SDS011;55318;52.068;5.188;2023-07-20T05:08:46;3.6;;;2.1;;
68375;SDS011;55318;52.068;5.188;2023-07-20T05:11:59;3.8;;;2.21;;
68375;SDS011;55318;52.068;5.188;2023-07-20T05:13:35;3.5;;;2.31;;
68375;SDS011;55318;52.068;5.188;2023-07-20T05:15:12;4.61;;;2.5;;
68375;SDS011;55318;52.068;5.188;2023-07-20T05:16:48;3.9;;;2.4;;
68375;SDS011;55318;52.068;5.188;2023-07-20T05:20:01;3.2;;;2.31;;
68375;SDS011;55318;52.068;5.188;2023-07-20T05:21:38;2.5;;;1.9;;
68375;SDS011;55318;52.068;5.188;2023-07-20T05:23:14;2.31;;;1.9;;
68375;SDS011;55318;52.068;5.188;2023-07-20T05:26:26;4.2;;;2.31;;
68375;SDS011;55318;52.068;5.188;2023-07-20T05:28:02;3.2;;;1.9;;
68375;SDS011;55318;52.068;5.188;2023-07-20T05:29:43;2.4;;;1.6;;
68375;SDS011;55318;52.068;5.188;2023-07-20T05:32:56;3.6;;;1.4;;
68375;SDS011;55318;52.068;5.188;2023-07-20T05:34:32;2.21;;;1.6;;
68375;SDS011;55318;52.068;5.188;2023-07-20T05:36:08;1.5;;;1.2;;
68375;SDS011;55318;52.068;5.188;2023-07-20T05:37:44;1.6;;;1.5;;
68375;SDS011;55318;52.068;5.188;2023-07-20T05:40:59;1.8;;;1.11;;
68375;SDS011;55318;52.068;5.188;2023-07-20T05:42:36;2.31;;;1.4;;
68375;SDS011;55318;52.068;5.188;2023-07-20T05:44:12;3.9;;;1.4;;
68375;SDS011;55318;52.068;5.188;2023-07-20T05:47:25;4.7;;;1.6;;
68375;SDS011;55318;52.068;5.188;2023-07-20T05:49:01;1.2;;;1.11;;
68375;SDS011;55318;52.068;5.188;2023-07-20T05:50:38;2.7;;;0.7;;
68375;SDS011;55318;52.068;5.188;2023-07-20T05:52:18;1.3;;;1.0;;
68375;SDS011;55318;52.068;5.188;2023-07-20T05:55:30;0.8;;;0.7;;
68375;SDS011;55318;52.068;5.188;2023-07-20T05:57:07;1.2;;;0.7;;
68375;SDS011;55318;52.068;5.188;2023-07-20T05:58:43;1.2;;;0.9;;
68375;SDS011;55318;52.068;5.188;2023-07-20T06:01:56;1.5;;;1.0;;
68375;SDS011;55318;52.068;5.188;2023-07-20T06:03:32;1.6;;;0.9;;
68375;SDS011;55318;52.068;5.188;2023-07-20T06:05:08;3.0;;;1.11;;
68375;SDS011;55318;52.068;5.188;2023-07-20T06:08:21;1.11;;;0.7;;
68375;SDS011;55318;52.068;5.188;2023-07-20T06:09:57;1.3;;;0.7;;
68375;SDS011;55318;52.068;5.188;2023-07-20T06:11:33;0.8;;;0.7;;
68375;SDS011;55318;52.068;5.188;2023-07-20T06:14:45;2.1;;;1.11;;
68375;SDS011;55318;52.068;5.188;2023-07-20T06:16:21;0.6;;;0.6;;
68375;SDS011;55318;52.068;5.188;2023-07-20T06:17:58;0.7;;;0.6;;
68375;SDS011;55318;52.068;5.188;2023-07-20T06:19:35;0.6;;;0.6;;
68375;SDS011;55318;52.068;5.188;2023-07-20T06:24:23;1.3;;;0.7;;
68375;SDS011;55318;52.068;5.188;2023-07-20T06:25:59;0.2;;;0.2;;
68375;SDS011;55318;52.068;5.188;2023-07-20T06:29:11;3.0;;;0.7;;
68375;SDS011;55318;52.068;5.188;2023-07-20T06:30:48;0.6;;;0.4;;
68375;SDS011;55318;52.068;5.188;2023-07-20T06:32:24;0.9;;;0.5;;
68375;SDS011;55318;52.068;5.188;2023-07-20T06:35:36;0.2;;;0.2;;
68375;SDS011;55318;52.068;5.188;2023-07-20T06:37:12;0.3;;;0.3;;
68375;SDS011;55318;52.068;5.188;2023-07-20T06:38:48;0.3;;;0.3;;
68375;SDS011;55318;52.068;5.188;2023-07-20T06:40:24;0.4;;;0.3;;
68375;SDS011;55318;52.068;5.188;2023-07-20T06:43:37;1.4;;;0.4;;
68375;SDS011;55318;52.068;5.188;2023-07-20T06:45:13;0.8;;;0.3;;
68375;SDS011;55318;52.068;5.188;2023-07-20T06:46:49;1.2;;;0.5;;
68375;SDS011;55318;52.068;5.188;2023-07-20T06:50:01;0.8;;;0.4;;
68375;SDS011;55318;52.068;5.188;2023-07-20T06:51:37;0.3;;;0.3;;
68375;SDS011;55318;52.068;5.188;2023-07-20T06:53:13;0.5;;;0.5;;
68375;SDS011;55318;52.068;5.188;2023-07-20T06:56:25;1.5;;;0.3;;
68375;SDS011;55318;52.068;5.188;2023-07-20T06:58:02;0.2;;;0.2;;
68375;SDS011;55318;52.068;5.188;2023-07-20T06:59:37;0.6;;;0.2;;
68375;SDS011;55318;52.068;5.188;2023-07-20T07:02:50;1.0;;;0.4;;
68375;SDS011;55318;52.068;5.188;2023-07-20T07:04:26;0.2;;;0.2;;
68375;SDS011;55318;52.068;5.188;2023-07-20T07:06:02;1.4;;;0.4;;
68375;SDS011;55318;52.068;5.188;2023-07-20T07:07:38;0.6;;;0.2;;
68375;SDS011;55318;52.068;5.188;2023-07-20T07:10:51;0.2;;;0.2;;
68375;SDS011;55318;52.068;5.188;2023-07-20T07:12:28;0.9;;;0.3;;
68375;SDS011;55318;52.068;5.188;2023-07-20T07:14:04;0.6;;;0.3;;
68375;SDS011;55318;52.068;5.188;2023-07-20T07:17:16;0.6;;;0.2;;
68375;SDS011;55318;52.068;5.188;2023-07-20T07:18:52;0.5;;;0.2;;
68375;SDS011;55318;52.068;5.188;2023-07-20T07:20:28;0.4;;;0.3;;
68375;SDS011;55318;52.068;5.188;2023-07-20T07:23:40;0.6;;;0.3;;
68375;SDS011;55318;52.068;5.188;2023-07-20T07:25:17;0.4;;;0.4;;
68375;SDS011;55318;52.068;5.188;2023-07-20T07:26:53;0.3;;;0.2;;
68375;SDS011;55318;52.068;5.188;2023-07-20T07:30:05;0.3;;;0.3;;
68375;SDS011;55318;52.068;5.188;2023-07-20T07:31:43;0.9;;;0.2;;
68375;SDS011;55318;52.068;5.188;2023-07-20T07:33:19;0.8;;;0.3;;
68375;SDS011;55318;52.068;5.188;2023-07-20T07:34:55;0.5;;;0.2;;
68375;SDS011;55318;52.068;5.188;2023-07-20T07:38:08;0.1;;;0.1;;
68375;SDS011;55318;52.068;5.188;2023-07-20T07:39:44;0.6;;;0.3;;
68375;SDS011;55318;52.068;5.188;2023-07-20T07:41:21;0.2;;;0.2;;
68375;SDS011;55318;52.068;5.188;2023-07-20T07:44:33;1.5;;;0.4;;
68375;SDS011;55318;52.068;5.188;2023-07-20T07:46:09;0.3;;;0.3;;
68375;SDS011;55318;52.068;5.188;2023-07-20T07:47:45;0.7;;;0.2;;
68375;SDS011;55318;52.068;5.188;2023-07-20T07:50:57;2.21;;;0.3;;
68375;SDS011;55318;52.068;5.188;2023-07-20T07:52:33;1.5;;;0.9;;
68375;SDS011;55318;52.068;5.188;2023-07-20T07:54:09;0.2;;;0.2;;
68375;SDS011;55318;52.068;5.188;2023-07-20T07:55:47;0.3;;;0.3;;
68375;SDS011;55318;52.068;5.188;2023-07-20T07:58:59;0.3;;;0.2;;
68375;SDS011;55318;52.068;5.188;2023-07-20T08:00:35;0.6;;;0.4;;
68375;SDS011;55318;52.068;5.188;2023-07-20T08:02:11;1.6;;;0.2;;
68375;SDS011;55318;52.068;5.188;2023-07-20T08:05:23;0.3;;;0.2;;
68375;SDS011;55318;52.068;5.188;2023-07-20T08:06:59;0.5;;;0.1;;
68375;SDS011;55318;52.068;5.188;2023-07-20T08:08:37;0.4;;;0.2;;
68375;SDS011;55318;52.068;5.188;2023-07-20T08:11:50;1.0;;;0.2;;
68375;SDS011;55318;52.068;5.188;2023-07-20T08:13:26;1.4;;;0.4;;
68375;SDS011;55318;52.068;5.188;2023-07-20T08:15:02;0.2;;;0.1;;
68375;SDS011;55318;52.068;5.188;2023-07-20T08:16:38;1.0;;;0.4;;
68375;SDS011;55318;52.068;5.188;2023-07-20T08:19:50;0.2;;;0.2;;
68375;SDS011;55318;52.068;5.188;2023-07-20T08:21:26;0.4;;;0.2;;
68375;SDS011;55318;52.068;5.188;2023-07-20T08:23:02;0.6;;;0.2;;
68375;SDS011;55318;52.068;5.188;2023-07-20T08:26:16;0.2;;;0.2;;
68375;SDS011;55318;52.068;5.188;2023-07-20T08:27:52;0.4;;;0.2;;
68375;SDS011;55318;52.068;5.188;2023-07-20T08:29:28;0.8;;;0.1;;
68375;SDS011;55318;52.068;5.188;2023-07-20T08:32:42;1.6;;;0.2;;
68375;SDS011;55318;52.068;5.188;2023-07-20T08:34:18;0.2;;;0.2;;
68375;SDS011;55318;52.068;5.188;2023-07-20T08:35:54;0.5;;;0.3;;
68375;SDS011;55318;52.068;5.188;2023-07-20T08:39:07;0.6;;;0.2;;
68375;SDS011;55318;52.068;5.188;2023-07-20T08:40:44;0.2;;;0.2;;
68375;SDS011;55318;52.068;5.188;2023-07-20T08:42:21;1.11;;;0.3;;
68375;SDS011;55318;52.068;5.188;2023-07-20T08:43:59;0.3;;;0.3;;
68375;SDS011;55318;52.068;5.188;2023-07-20T08:47:15;0.5;;;0.4;;
68375;SDS011;55318;52.068;5.188;2023-07-20T08:48:52;0.1;;;0.1;;
68375;SDS011;55318;52.068;5.188;2023-07-20T08:50:31;0.1;;;0.1;;
68375;SDS011;55318;52.068;5.188;2023-07-20T08:53:45;0.2;;;0.2;;
68375;SDS011;55318;52.068;5.188;2023-07-20T08:55:23;1.9;;;0.5;;
68375;SDS011;55318;52.068;5.188;2023-07-20T08:57:01;0.2;;;0.2;;
68375;SDS011;55318;52.068;5.188;2023-07-20T08:58:39;1.11;;;0.2;;
68375;SDS011;55318;52.068;5.188;2023-07-20T09:01:57;0.8;;;0.3;;
68375;SDS011;55318;52.068;5.188;2023-07-20T09:03:34;0.1;;;0.1;;
68375;SDS011;55318;52.068;5.188;2023-07-20T09:05:10;0.3;;;0.3;;
68375;SDS011;55318;52.068;5.188;2023-07-20T09:08:25;0.3;;;0.3;;
68375;SDS011;55318;52.068;5.188;2023-07-20T09:10:01;0.4;;;0.1;;
68375;SDS011;55318;52.068;5.188;2023-07-20T09:11:38;0.2;;;0.2;;
68375;SDS011;55318;52.068;5.188;2023-07-20T09:13:15;0.2;;;0.2;;
68375;SDS011;55318;52.068;5.188;2023-07-20T09:16:27;0.2;;;0.2;;
68375;SDS011;55318;52.068;5.188;2023-07-20T09:18:04;1.3;;;0.2;;
68375;SDS011;55318;52.068;5.188;2023-07-20T09:19:45;0.5;;;0.2;;
68375;SDS011;55318;52.068;5.188;2023-07-20T09:22:58;3.1;;;0.4;;
68375;SDS011;55318;52.068;5.188;2023-07-20T09:24:34;0.3;;;0.2;;
68375;SDS011;55318;52.068;5.188;2023-07-20T09:26:10;0.3;;;0.3;;
68375;SDS011;55318;52.068;5.188;2023-07-20T09:27:48;0.2;;;0.2;;
68375;SDS011;55318;52.068;5.188;2023-07-20T09:31:01;1.7;;;0.2;;
68375;SDS011;55318;52.068;5.188;2023-07-20T09:32:52;1.11;;;0.4;;
68375;SDS011;55318;52.068;5.188;2023-07-20T09:34:28;0.3;;;0.1;;
68375;SDS011;55318;52.068;5.188;2023-07-20T09:37:45;1.9;;;0.3;;
68375;SDS011;55318;52.068;5.188;2023-07-20T09:40:58;0.9;;;0.3;;
68375;SDS011;55318;52.068;5.188;2023-07-20T09:42:35;0.4;;;0.1;;
68375;SDS011;55318;52.068;5.188;2023-07-20T09:45:51;2.0;;;0.4;;
68375;SDS011;55318;52.068;5.188;2023-07-20T09:49:12;0.3;;;0.2;;
68375;SDS011;55318;52.068;5.188;2023-07-20T09:50:49;0.4;;;0.4;;
68375;SDS011;55318;52.068;5.188;2023-07-20T09:54:03;0.4;;;0.2;;
68375;SDS011;55318;52.068;5.188;2023-07-20T09:55:40;0.2;;;0.2;;
68375;SDS011;55318;52.068;5.188;2023-07-20T09:57:17;2.21;;;0.7;;
68375;SDS011;55318;52.068;5.188;2023-07-20T10:00:33;0.3;;;0.3;;
68375;SDS011;55318;52.068;5.188;2023-07-20T10:02:18;1.5;;;0.5;;
68375;SDS011;55318;52.068;5.188;2023-07-20T10:03:58;0.4;;;0.3;;
68375;SDS011;55318;52.068;5.188;2023-07-20T10:05:39;0.4;;;0.4;;
68375;SDS011;55318;52.068;5.188;2023-07-20T10:09:00;0.4;;;0.4;;
68375;SDS011;55318;52.068;5.188;2023-07-20T10:10:38;0.4;;;0.3;;
68375;SDS011;55318;52.068;5.188;2023-07-20T10:12:17;0.6;;;0.4;;
68375;SDS011;55318;52.068;5.188;2023-07-20T10:13:59;0.4;;;0.4;;
68375;SDS011;55318;52.068;5.188;2023-07-20T10:17:22;0.5;;;0.2;;
68375;SDS011;55318;52.068;5.188;2023-07-20T10:19:03;0.4;;;0.4;;
68375;SDS011;55318;52.068;5.188;2023-07-20T10:20:42;0.4;;;0.2;;
68375;SDS011;55318;52.068;5.188;2023-07-20T10:22:23;1.6;;;0.3;;
68375;SDS011;55318;52.068;5.188;2023-07-20T10:25:44;0.7;;;0.7;;
68375;SDS011;55318;52.068;5.188;2023-07-20T10:27:23;0.8;;;0.2;;
68375;SDS011;55318;52.068;5.188;2023-07-20T10:29:00;0.2;;;0.2;;
68375;SDS011;55318;52.068;5.188;2023-07-20T10:30:37;0.8;;;0.4;;
68375;SDS011;55318;52.068;5.188;2023-07-20T10:33:50;0.5;;;0.2;;
68375;SDS011;55318;52.068;5.188;2023-07-20T10:35:27;1.2;;;0.4;;
68375;SDS011;55318;52.068;5.188;2023-07-20T10:37:03;0.6;;;0.4;;
68375;SDS011;55318;52.068;5.188;2023-07-20T10:42:13;0.8;;;0.3;;
68375;SDS011;55318;52.068;5.188;2023-07-20T10:43:49;0.7;;;0.3;;
68375;SDS011;55318;52.068;5.188;2023-07-20T10:45:42;0.5;;;0.2;;
68375;SDS011;55318;52.068;5.188;2023-07-20T10:47:28;1.3;;;0.2;;
68375;SDS011;55318;52.068;5.188;2023-07-20T10:49:20;0.7;;;0.3;;
68375;SDS011;55318;52.068;5.188;2023-07-20T10:53:01;0.2;;;0.2;;
68375;SDS011;55318;52.068;5.188;2023-07-20T10:54:47;0.7;;;0.3;;
68375;SDS011;55318;52.068;5.188;2023-07-20T10:56:26;0.1;;;0.1;;
68375;SDS011;55318;52.068;5.188;2023-07-20T10:58:07;0.2;;;0.2;;
68375;SDS011;55318;52.068;5.188;2023-07-20T11:01:27;0.3;;;0.3;;
68375;SDS011;55318;52.068;5.188;2023-07-20T11:03:04;0.2;;;0.1;;
68375;SDS011;55318;52.068;5.188;2023-07-20T11:04:40;0.4;;;0.3;;
68375;SDS011;55318;52.068;5.188;2023-07-20T11:06:33;0.3;;;0.2;;
68375;SDS011;55318;52.068;5.188;2023-07-20T11:08:10;0.2;;;0.2;;
68375;SDS011;55318;52.068;5.188;2023-07-20T11:11:24;0.7;;;0.3;;
68375;SDS011;55318;52.068;5.188;2023-07-20T11:13:18;0.2;;;0.2;;
68375;SDS011;55318;52.068;5.188;2023-07-20T11:15:10;1.4;;;0.4;;
68375;SDS011;55318;52.068;5.188;2023-07-20T11:16:46;0.1;;;0.1;;
68375;SDS011;55318;52.068;5.188;2023-07-20T11:20:02;0.3;;;0.2;;
68375;SDS011;55318;52.068;5.188;2023-07-20T11:21:40;0.7;;;0.2;;
68375;SDS011;55318;52.068;5.188;2023-07-20T11:23:19;0.3;;;0.3;;
68375;SDS011;55318;52.068;5.188;2023-07-20T11:24:57;0.3;;;0.3;;
68375;SDS011;55318;52.068;5.188;2023-07-20T11:28:19;0.7;;;0.4;;
68375;SDS011;55318;52.068;5.188;2023-07-20T11:29:55;1.0;;;0.3;;
68375;SDS011;55318;52.068;5.188;2023-07-20T11:31:34;0.2;;;0.2;;
68375;SDS011;55318;52.068;5.188;2023-07-20T11:34:47;0.9;;;0.4;;
68375;SDS011;55318;52.068;5.188;2023-07-20T11:36:23;0.7;;;0.3;;
68375;SDS011;55318;52.068;5.188;2023-07-20T11:37:59;0.4;;;0.4;;
68375;SDS011;55318;52.068;5.188;2023-07-20T11:39:35;0.8;;;0.3;;
68375;SDS011;55318;52.068;5.188;2023-07-20T11:42:49;0.5;;;0.3;;
68375;SDS011;55318;52.068;5.188;2023-07-20T11:44:25;0.3;;;0.3;;
68375;SDS011;55318;52.068;5.188;2023-07-20T11:46:04;0.5;;;0.3;;
68375;SDS011;55318;52.068;5.188;2023-07-20T11:49:17;0.4;;;0.3;;
68375;SDS011;55318;52.068;5.188;2023-07-20T11:50:53;2.0;;;0.4;;
68375;SDS011;55318;52.068;5.188;2023-07-20T11:52:30;0.5;;;0.4;;
68375;SDS011;55318;52.068;5.188;2023-07-20T11:55:45;0.4;;;0.4;;
68375;SDS011;55318;52.068;5.188;2023-07-20T11:57:22;0.4;;;0.4;;
68375;SDS011;55318;52.068;5.188;2023-07-20T11:58:58;0.7;;;0.4;;
68375;SDS011;55318;52.068;5.188;2023-07-20T12:00:36;0.2;;;0.2;;
68375;SDS011;55318;52.068;5.188;2023-07-20T12:05:27;0.4;;;0.3;;
68375;SDS011;55318;52.068;5.188;2023-07-20T12:07:03;1.2;;;0.3;;
68375;SDS011;55318;52.068;5.188;2023-07-20T12:10:16;0.5;;;0.5;;
68375;SDS011;55318;52.068;5.188;2023-07-20T12:11:52;0.5;;;0.3;;
68375;SDS011;55318;52.068;5.188;2023-07-20T12:13:36;2.6;;;0.4;;
68375;SDS011;55318;52.068;5.188;2023-07-20T12:15:14;0.3;;;0.2;;
68375;SDS011;55318;52.068;5.188;2023-07-20T12:18:34;1.11;;;0.5;;
68375;SDS011;55318;52.068;5.188;2023-07-20T12:20:11;0.7;;;0.3;;
68375;SDS011;55318;52.068;5.188;2023-07-20T12:21:47;0.2;;;0.2;;
68375;SDS011;55318;52.068;5.188;2023-07-20T12:25:00;0.3;;;0.3;;
68375;SDS011;55318;52.068;5.188;2023-07-20T12:26:36;1.8;;;0.3;;
68375;SDS011;55318;52.068;5.188;2023-07-20T12:28:14;1.3;;;0.5;;
68375;SDS011;55318;52.068;5.188;2023-07-20T12:29:51;0.7;;;0.5;;
68375;SDS011;55318;52.068;5.188;2023-07-20T12:33:03;0.4;;;0.4;;
68375;SDS011;55318;52.068;5.188;2023-07-20T12:34:41;0.7;;;0.4;;
68375;SDS011;55318;52.068;5.188;2023-07-20T12:36:17;0.8;;;0.5;;
68375;SDS011;55318;52.068;5.188;2023-07-20T12:39:30;0.3;;;0.3;;
68375;SDS011;55318;52.068;5.188;2023-07-20T12:41:06;0.4;;;0.4;;
68375;SDS011;55318;52.068;5.188;2023-07-20T12:42:42;0.6;;;0.4;;
68375;SDS011;55318;52.068;5.188;2023-07-20T12:45:54;0.7;;;0.5;;
68375;SDS011;55318;52.068;5.188;2023-07-20T12:47:32;0.3;;;0.3;;
68375;SDS011;55318;52.068;5.188;2023-07-20T12:49:08;0.3;;;0.3;;
68375;SDS011;55318;52.068;5.188;2023-07-20T12:50:44;0.6;;;0.4;;
68375;SDS011;55318;52.068;5.188;2023-07-20T12:53:56;0.7;;;0.4;;
68375;SDS011;55318;52.068;5.188;2023-07-20T12:55:32;0.4;;;0.4;;
68375;SDS011;55318;52.068;5.188;2023-07-20T12:57:08;0.2;;;0.2;;
68375;SDS011;55318;52.068;5.188;2023-07-20T13:00:20;1.5;;;0.3;;
68375;SDS011;55318;52.068;5.188;2023-07-20T13:01:57;2.0;;;0.6;;
68375;SDS011;55318;52.068;5.188;2023-07-20T13:03:34;0.4;;;0.4;;
68375;SDS011;55318;52.068;5.188;2023-07-20T13:06:46;0.6;;;0.4;;
68375;SDS011;55318;52.068;5.188;2023-07-20T13:08:22;0.6;;;0.3;;
68375;SDS011;55318;52.068;5.188;2023-07-20T13:09:58;0.5;;;0.5;;